עמוד ראשי
METAR-TAF:

METAR-TAF

שדות תעופה :

Anaktuvuk Pass, אלסקה, ארצות הברית

קו רוחב: 68-08-01N, קו אורך: 151-44-36W, גובה: 641מטר

תצפית מזג אוויר נוכחית

הדו"ח נערך לפני 40דקות, בשעה 18:56 UTC
רוח 10קשר מכיוון דרום-מערב
טמפרטורת 19 צלסיוס
לחות 46%
לחץ 1015 hPa
ראות: 11.3קילומטר
שמיים נקיים

METAR: PAKP 251856Z AUTO 22010KT 7SM CLR 19/07 A2998 RMK AO2 SLP167 T01890072

זמן: 11:36 (19:36 UTC)


TAF: חסר

תצפיות ותחזיות מזג אוויר לגבי יותר מ- 4,000 שדות תעופה ברחבי העולם. דוחות METAR ו- TAF.

התחנות הזמינות מסומנות בנקודות צהובות ואדומות על גבי המפה.

העבר את העכבר לנקודה הצבעונית על מנת לראות את שם התחנה.

לאחר מכן, לחץ כדי לראות את תוכן ואת תחזיות מזג האוויר.

כדי לשנות את המפה: לחץ על הכפתורים הירוקים עם הפלוס השחור כדי להתקרב; על הכפתור הירוק עם המקף כדי להתרחק; או בחיצים הירוקים למפות סמוכות.


METAR-TAF: